Time;durP1;ratioP1;P1;durP2;ratioP2;P2;SDS_P1;SDS_P2;PMS_P1;PMS_P2;Temp;Humidity;BMP_temperature;BMP_pressure;BME280_temperature;BME280_humidity;BME280_pressure;Samples;Min_cycle;Max_cycle;Signal;HPM_P1;HPM_P2
2022/04/08 00:00:19;;;;;;;11.75;3.20;;;21.90;53.30;;;;;;5060435;28;20048;-71
2022/04/08 00:02:45;;;;;;;9.75;3.35;;;22.00;53.30;;;;;;5076857;28;20092;-71
2022/04/08 00:05:11;;;;;;;8.68;2.90;;;22.00;53.20;;;;;;5077450;28;20104;-71
2022/04/08 00:07:37;;;;;;;10.13;2.88;;;21.90;53.20;;;;;;5077068;28;20104;-70
2022/04/08 00:10:04;;;;;;;8.10;3.97;;;22.00;53.20;;;;;;5077216;28;20370;-70
2022/04/08 00:12:30;;;;;;;9.27;3.42;;;21.90;53.10;;;;;;5077660;28;20033;-70
2022/04/08 00:14:58;;;;;;;9.48;3.25;;;21.90;53.10;;;;;;5077348;28;20070;-71
2022/04/08 00:17:25;;;;;;;7.07;3.03;;;21.80;52.90;;;;;;5076951;28;20041;-71
2022/04/08 00:19:51;;;;;;;11.63;3.50;;;22.00;53.00;;;;;;5077423;28;20045;-71
2022/04/08 00:22:21;;;;;;;10.25;3.08;;;21.70;53.00;;;;;;5077386;28;20040;-71
2022/04/08 00:24:49;;;;;;;14.93;3.42;;;21.80;53.00;;;;;;5076956;28;20041;-71
2022/04/08 00:27:15;;;;;;;9.10;3.10;;;21.80;53.00;;;;;;5077446;28;20040;-71
2022/04/08 00:29:41;;;;;;;9.10;3.20;;;21.80;53.00;;;;;;5077358;28;20037;-71
2022/04/08 00:32:07;;;;;;;7.32;3.38;;;21.90;53.10;;;;;;5077074;28;20059;-70
2022/04/08 00:34:34;;;;;;;7.45;3.63;;;21.70;53.20;;;;;;5077020;28;20064;-71
2022/04/08 00:37:00;;;;;;;6.50;2.53;;;21.80;53.10;;;;;;5077134;28;20048;-71
2022/04/08 00:39:26;;;;;;;14.93;3.65;;;21.80;53.10;;;;;;5076788;28;20116;-71
2022/04/08 00:41:52;;;;;;;11.25;3.55;;;21.80;53.00;;;;;;5077061;28;20104;-71
2022/04/08 00:44:19;;;;;;;11.32;3.53;;;21.60;52.90;;;;;;5076009;28;20045;-71
2022/04/08 00:46:45;;;;;;;8.38;3.67;;;21.80;53.00;;;;;;5076968;28;20040;-71
2022/04/08 00:49:11;;;;;;;8.18;3.80;;;21.80;53.00;;;;;;5076046;28;20037;-71
2022/04/08 00:51:39;;;;;;;6.47;3.10;;;21.80;53.00;;;;;;5076767;28;20044;-71
2022/04/08 00:54:06;;;;;;;5.00;3.00;;;21.80;52.90;;;;;;5076907;28;20067;-71
2022/04/08 00:56:33;;;;;;;11.18;3.67;;;21.90;53.00;;;;;;5076595;28;20045;-71
2022/04/08 00:58:59;;;;;;;11.20;2.90;;;21.70;52.80;;;;;;5075828;28;20064;-71
2022/04/08 01:01:25;;;;;;;9.98;3.40;;;21.90;53.00;;;;;;5059394;28;20071;-71
2022/04/08 01:03:52;;;;;;;13.00;3.17;;;21.90;52.80;;;;;;5076448;28;20048;-71
2022/04/08 01:06:20;;;;;;;11.45;3.50;;;21.80;52.70;;;;;;5076256;28;20041;-71
2022/04/08 01:08:51;;;;;;;12.35;3.70;;;21.90;52.80;;;;;;5076128;28;20065;-71
2022/04/08 01:11:19;;;;;;;10.60;2.97;;;21.80;52.60;;;;;;5076646;28;20033;-71
2022/04/08 01:13:45;;;;;;;11.35;3.47;;;21.70;52.60;;;;;;5076496;28;20044;-71
2022/04/08 01:16:12;;;;;;;6.57;3.17;;;21.70;52.70;;;;;;5076273;28;20402;-71
2022/04/08 01:18:38;;;;;;;10.43;3.55;;;21.70;52.80;;;;;;5076609;28;20041;-71
2022/04/08 01:21:05;;;;;;;7.45;3.03;;;21.60;52.80;;;;;;5076425;28;20087;-70
2022/04/08 01:23:35;;;;;;;8.25;3.28;;;21.60;52.80;;;;;;5075877;28;20041;-71
2022/04/08 01:26:08;;;;;;;7.82;3.30;;;21.60;52.90;;;;;;5076329;28;20041;-71
2022/04/08 01:28:35;;;;;;;7.97;3.42;;;21.60;52.80;;;;;;5078169;28;20037;-71
2022/04/08 01:31:01;;;;;;;9.02;3.58;;;21.60;52.80;;;;;;5080746;28;20071;-71
2022/04/08 01:33:27;;;;;;;9.27;3.35;;;21.70;52.90;;;;;;5080430;28;20044;-71
2022/04/08 01:35:54;;;;;;;8.70;3.55;;;21.50;52.80;;;;;;5080320;28;20037;-71
2022/04/08 01:38:20;;;;;;;12.27;3.40;;;21.60;52.80;;;;;;5080324;28;20120;-71
2022/04/08 01:40:46;;;;;;;7.80;3.50;;;21.60;52.80;;;;;;5080276;28;20033;-71
2022/04/08 01:43:12;;;;;;;7.65;3.42;;;21.60;52.80;;;;;;5080438;28;20068;-71
2022/04/08 01:45:38;;;;;;;14.90;4.10;;;21.60;52.80;;;;;;5079961;28;20045;-71
2022/04/08 01:48:05;;;;;;;9.98;3.63;;;21.60;52.80;;;;;;5080263;28;20048;-71
2022/04/08 01:50:31;;;;;;;7.30;3.13;;;21.60;52.80;;;;;;5080264;28;20068;-71
2022/04/08 01:52:57;;;;;;;9.93;3.33;;;21.50;52.70;;;;;;5080211;28;20498;-71
2022/04/08 01:55:24;;;;;;;5.93;3.60;;;21.60;52.70;;;;;;5079874;28;20048;-71
2022/04/08 01:57:51;;;;;;;7.75;3.72;;;21.50;52.70;;;;;;5080243;28;20040;-71
2022/04/08 02:00:17;;;;;;;8.43;3.58;;;21.50;52.70;;;;;;5080112;28;20041;-71
2022/04/08 02:02:44;;;;;;;10.15;4.05;;;21.40;52.70;;;;;;5079207;28;20053;-71
2022/04/08 02:05:11;;;;;;;7.47;4.20;;;21.40;52.70;;;;;;5079533;28;20143;-71
2022/04/08 02:07:37;;;;;;;9.48;2.95;;;21.40;52.80;;;;;;5080077;28;20041;-71
2022/04/08 02:10:07;;;;;;;6.95;3.38;;;21.40;52.80;;;;;;5079749;28;20063;-71
2022/04/08 02:12:33;;;;;;;11.18;3.95;;;21.40;52.70;;;;;;5079903;28;20037;-71
2022/04/08 02:15:00;;;;;;;9.90;3.40;;;21.40;52.80;;;;;;5079849;28;20040;-71
2022/04/08 02:17:28;;;;;;;7.80;3.47;;;21.40;52.80;;;;;;5079597;28;20045;-71
2022/04/08 02:19:55;;;;;;;10.02;3.58;;;21.40;52.70;;;;;;5079615;28;20037;-71
2022/04/08 02:22:24;;;;;;;12.73;4.03;;;21.30;52.60;;;;;;5079572;28;20045;-71
2022/04/08 02:24:51;;;;;;;10.90;3.88;;;21.40;52.70;;;;;;5079413;28;20044;-71
2022/04/08 02:27:18;;;;;;;7.68;3.67;;;21.30;52.60;;;;;;5079545;28;20048;-71
2022/04/08 02:29:44;;;;;;;7.57;3.28;;;21.40;52.60;;;;;;5079495;28;20068;-71
2022/04/08 02:32:10;;;;;;;7.13;3.33;;;21.40;52.60;;;;;;5079486;28;20041;-71
2022/04/08 02:34:38;;;;;;;10.13;3.85;;;21.40;52.50;;;;;;5078717;28;20041;-71
2022/04/08 02:37:05;;;;;;;7.07;3.47;;;21.40;52.50;;;;;;5079205;28;20041;-71
2022/04/08 02:39:31;;;;;;;9.20;3.22;;;21.40;52.50;;;;;;5078947;28;20053;-70
2022/04/08 02:41:58;;;;;;;11.18;3.47;;;21.30;52.50;;;;;;5079269;28;20080;-71
2022/04/08 02:44:24;;;;;;;11.18;3.75;;;21.30;52.40;;;;;;5078318;28;20045;-71
2022/04/08 02:46:50;;;;;;;6.97;3.67;;;21.40;52.50;;;;;;5079111;28;20067;-71
2022/04/08 02:49:16;;;;;;;7.85;3.35;;;21.30;52.50;;;;;;5061836;28;20033;-71
2022/04/08 02:51:42;;;;;;;10.82;3.80;;;21.40;52.40;;;;;;5078378;28;20041;-71
2022/04/08 02:54:10;;;;;;;8.40;3.22;;;21.30;52.40;;;;;;5079001;28;20128;-71
2022/04/08 02:56:39;;;;;;;6.55;3.45;;;21.20;52.40;;;;;;5078876;28;20054;-71
2022/04/08 02:59:05;;;;;;;13.50;4.70;;;21.20;52.40;;;;;;5078461;28;20052;-71
2022/04/08 03:01:31;;;;;;;5.82;3.60;;;21.20;52.40;;;;;;5078222;28;20067;-71
2022/04/08 03:03:57;;;;;;;14.15;4.13;;;21.20;52.40;;;;;;5078823;28;20036;-71
2022/04/08 03:06:23;;;;;;;9.77;4.05;;;21.20;52.40;;;;;;5078483;28;20033;-71
2022/04/08 03:08:49;;;;;;;9.23;4.07;;;21.20;52.40;;;;;;5078828;28;20040;-71
2022/04/08 03:11:15;;;;;;;13.50;4.07;;;21.20;52.30;;;;;;5078208;28;20048;-71
2022/04/08 03:13:41;;;;;;;9.23;3.92;;;21.20;52.20;;;;;;5078447;28;20052;-71
2022/04/08 03:16:08;;;;;;;11.75;3.70;;;21.20;52.30;;;;;;5078439;28;20094;-71
2022/04/08 03:18:34;;;;;;;10.18;3.80;;;21.10;52.30;;;;;;5077831;28;20040;-71
2022/04/08 03:21:00;;;;;;;9.75;3.83;;;21.30;52.30;;;;;;5077851;28;20470;-71
2022/04/08 03:23:26;;;;;;;6.25;3.30;;;21.20;52.20;;;;;;5078567;28;20062;-71
2022/04/08 03:25:52;;;;;;;9.23;3.35;;;21.10;52.10;;;;;;5077307;28;20068;-70
2022/04/08 03:28:18;;;;;;;8.27;3.53;;;21.20;52.00;;;;;;5078464;28;20041;-71
2022/04/08 03:30:46;;;;;;;11.40;4.80;;;21.30;52.10;;;;;;5078363;28;20041;-71
2022/04/08 03:33:12;;;;;;;10.75;3.75;;;21.30;52.10;;;;;;5078292;28;20059;-70
2022/04/08 03:35:39;;;;;;;8.73;3.90;;;21.20;52.00;;;;;;5078015;28;20051;-70
2022/04/08 03:38:05;;;;;;;9.43;3.55;;;21.30;52.10;;;;;;5077262;28;20049;-71
2022/04/08 03:40:33;;;;;;;9.52;3.88;;;21.20;52.00;;;;;;5078130;28;20052;-71
2022/04/08 03:42:59;;;;;;;6.50;3.60;;;21.10;52.00;;;;;;5078160;28;20041;-71
2022/04/08 03:45:26;;;;;;;11.23;4.15;;;21.20;52.00;;;;;;5078036;28;20064;-71
2022/04/08 03:47:52;;;;;;;13.32;4.97;;;21.00;51.90;;;;;;5077792;28;20070;-71
2022/04/08 03:50:18;;;;;;;14.07;3.92;;;21.10;52.10;;;;;;5076998;28;20041;-71
2022/04/08 03:52:44;;;;;;;7.53;3.47;;;21.00;52.00;;;;;;5077649;28;20040;-71
2022/04/08 03:55:11;;;;;;;11.82;4.07;;;21.10;52.10;;;;;;5077036;28;20045;-71
2022/04/08 03:57:37;;;;;;;5.85;3.20;;;21.00;52.10;;;;;;5077698;28;20082;-71
2022/04/08 04:00:03;;;;;;;7.57;3.53;;;21.10;52.10;;;;;;5060392;28;20175;-71
2022/04/08 04:02:33;;;;;;;7.10;3.42;;;21.30;51.60;;;;;;5077112;28;20124;-71
2022/04/08 04:04:59;;;;;;;8.70;3.80;;;21.50;51.20;;;;;;5076997;28;20060;-71
2022/04/08 04:07:26;;;;;;;7.97;3.40;;;21.60;50.80;;;;;;5077018;28;20032;-72
2022/04/08 04:09:53;;;;;;;6.68;3.78;;;21.70;50.60;;;;;;5077221;28;20041;-71
2022/04/08 04:12:19;;;;;;;15.00;4.00;;;21.80;50.50;;;;;;5077210;28;20032;-71
2022/04/08 04:14:46;;;;;;;11.02;3.97;;;21.70;50.80;;;;;;5076749;28;20044;-74
2022/04/08 04:17:13;;;;;;;6.25;3.40;;;21.70;52.50;;;;;;5076702;28;20039;-72
2022/04/08 04:19:39;;;;;;;11.73;3.60;;;21.90;55.00;;;;;;5076675;28;20143;-73
2022/04/08 04:22:05;;;;;;;11.10;3.42;;;22.10;56.90;;;;;;5076585;28;20049;-72
2022/04/08 04:24:31;;;;;;;8.00;4.25;;;22.50;61.20;;;;;;5075920;28;20044;-73
2022/04/08 04:26:57;;;;;;;8.15;4.72;;;22.60;55.30;;;;;;5076002;28;20072;-71
2022/04/08 04:29:23;;;;;;;10.23;4.43;;;22.70;56.40;;;;;;5076536;28;20053;-72
2022/04/08 04:31:49;;;;;;;13.45;4.85;;;22.80;54.10;;;;;;5076568;28;20040;-74
2022/04/08 04:34:15;;;;;;;13.18;4.90;;;22.80;51.70;;;;;;5076193;28;20045;-74
2022/04/08 04:36:42;;;;;;;9.88;4.55;;;22.70;49.20;;;;;;5076254;28;20037;-71
2022/04/08 04:39:08;;;;;;;10.57;6.07;;;22.60;47.60;;;;;;5076408;28;20057;-71
2022/04/08 04:41:34;;;;;;;11.10;5.25;;;22.50;47.60;;;;;;5076106;28;20097;-72
2022/04/08 04:44:01;;;;;;;11.32;4.90;;;22.40;47.30;;;;;;5076271;28;20040;-71
2022/04/08 04:46:28;;;;;;;15.27;5.03;;;22.20;47.50;;;;;;5076151;28;20044;-69
2022/04/08 04:48:54;;;;;;;13.25;5.20;;;22.20;48.00;;;;;;5076241;28;20037;-71
2022/04/08 04:51:20;;;;;;;12.57;5.07;;;22.00;48.80;;;;;;5076144;28;20056;-72
2022/04/08 04:53:46;;;;;;;15.43;6.05;;;21.90;49.50;;;;;;5076031;28;20041;-72
2022/04/08 04:56:12;;;;;;;10.65;4.82;;;22.00;50.00;;;;;;5076196;28;20048;-71
2022/04/08 04:58:38;;;;;;;16.73;6.25;;;21.80;50.30;;;;;;5075938;28;20047;-71
2022/04/08 05:01:04;;;;;;;9.43;3.20;;;21.90;50.80;;;;;;5075955;28;20033;-71
2022/04/08 05:03:30;;;;;;;6.63;3.03;;;21.80;46.40;;;;;;5076134;28;20032;-71
2022/04/08 05:05:57;;;;;;;16.60;3.63;;;22.00;47.00;;;;;;5075737;28;20036;-71
2022/04/08 05:08:23;;;;;;;7.78;2.65;;;22.00;45.40;;;;;;5075754;28;20083;-71
2022/04/08 05:10:49;;;;;;;7.63;2.97;;;22.20;45.50;;;;;;5075822;28;20041;-71
2022/04/08 05:13:15;;;;;;;6.03;2.58;;;22.10;45.80;;;;;;5076034;28;20037;-71
2022/04/08 05:15:45;;;;;;;4.57;2.90;;;22.20;45.20;;;;;;5075297;28;20104;-70
2022/04/08 05:18:12;;;;;;;7.90;4.28;;;22.30;45.20;;;;;;5075651;28;20064;-70
2022/04/08 05:20:38;;;;;;;13.07;5.00;;;22.30;44.10;;;;;;5073477;28;20029;-70
2022/04/08 05:23:04;;;;;;;7.55;3.42;;;22.30;43.60;;;;;;5070319;28;20045;-69
2022/04/08 05:25:31;;;;;;;8.75;4.15;;;22.20;41.60;;;;;;5074927;28;20041;-69
2022/04/08 05:27:57;;;;;;;8.10;4.20;;;22.20;41.10;;;;;;5075034;28;20100;-71
2022/04/08 05:30:23;;;;;;;9.75;3.55;;;22.10;43.30;;;;;;5074936;28;20033;-71
2022/04/08 05:32:49;;;;;;;10.05;3.33;;;22.20;43.20;;;;;;5074445;28;20181;-70
2022/04/08 05:35:17;;;;;;;8.27;4.00;;;22.20;44.10;;;;;;5074606;28;20118;-69
2022/04/08 05:37:48;;;;;;;13.35;5.68;;;22.20;42.70;;;;;;5075358;28;20104;-69
2022/04/08 05:40:23;;;;;;;8.18;4.55;;;22.30;41.10;;;;;;5072527;28;20065;-69
2022/04/08 05:42:50;;;;;;;15.75;4.35;;;22.40;41.20;;;;;;5072519;28;20048;-70
2022/04/08 05:45:21;;;;;;;8.00;4.63;;;22.40;43.20;;;;;;5074959;28;20056;-69
2022/04/08 05:47:49;;;;;;;15.85;5.82;;;22.50;42.30;;;;;;5074834;28;20052;-69
2022/04/08 05:50:16;;;;;;;9.50;5.95;;;22.50;40.30;;;;;;5074884;28;20048;-71
2022/04/08 05:52:43;;;;;;;14.65;6.57;;;22.60;42.40;;;;;;5075292;28;20056;-70
2022/04/08 05:55:10;;;;;;;15.82;8.02;;;22.60;44.90;;;;;;5074542;28;20045;-72
2022/04/08 05:57:40;;;;;;;21.52;6.88;;;22.70;52.20;;;;;;5065058;28;20052;-73
2022/04/08 06:00:10;;;;;;;10.45;6.30;;;22.60;51.80;;;;;;5075374;28;20033;-71
2022/04/08 06:02:43;;;;;;;18.80;6.72;;;22.70;51.80;;;;;;5075497;28;20075;-73
2022/04/08 06:05:10;;;;;;;20.48;6.70;;;22.60;53.40;;;;;;5074316;28;20104;-72
2022/04/08 06:07:48;;;;;;;18.08;6.05;;;22.60;54.00;;;;;;5074694;28;20033;-73
2022/04/08 06:10:18;;;;;;;10.52;5.53;;;22.50;54.60;;;;;;5074323;28;20028;-74
2022/04/08 06:12:48;;;;;;;19.15;6.43;;;22.50;54.70;;;;;;5074842;28;20056;-74
2022/04/08 06:15:14;;;;;;;13.15;6.28;;;22.50;55.20;;;;;;5077043;28;20052;-73
2022/04/08 06:17:40;;;;;;;12.85;5.47;;;22.60;55.60;;;;;;5078437;28;20063;-70
2022/04/08 06:20:11;;;;;;;9.95;5.25;;;22.50;56.00;;;;;;5077540;28;20041;-73
2022/04/08 06:22:42;;;;;;;12.57;4.90;;;22.50;56.80;;;;;;5078385;28;20060;-73
2022/04/08 06:25:11;;;;;;;12.15;4.50;;;22.60;57.20;;;;;;5078096;28;20086;-73
2022/04/08 06:27:37;;;;;;;10.95;4.82;;;22.50;57.40;;;;;;5078541;28;20040;-74
2022/04/08 06:30:07;;;;;;;7.93;4.32;;;22.50;57.50;;;;;;5078204;28;20033;-73
2022/04/08 06:32:33;;;;;;;9.43;4.45;;;22.50;56.70;;;;;;5077839;28;20083;-73
2022/04/08 06:35:01;;;;;;;10.75;5.07;;;22.50;56.10;;;;;;5077858;28;20041;-73
2022/04/08 06:37:28;;;;;;;11.48;5.28;;;22.60;55.50;;;;;;5078225;28;20080;-72
2022/04/08 06:39:55;;;;;;;9.00;4.75;;;22.60;55.50;;;;;;5077993;28;20094;-74
2022/04/08 06:42:22;;;;;;;10.88;5.25;;;22.50;55.10;;;;;;5078137;28;20041;-72
2022/04/08 06:44:48;;;;;;;12.02;5.63;;;22.60;54.70;;;;;;5078420;28;20079;-71
2022/04/08 06:47:14;;;;;;;15.50;5.68;;;22.70;55.00;;;;;;5078463;28;20037;-69
2022/04/08 06:49:44;;;;;;;7.22;4.30;;;22.70;54.90;;;;;;5078476;28;20067;-70
2022/04/08 06:52:13;;;;;;;10.85;4.97;;;22.70;54.90;;;;;;5060402;28;20105;-71
2022/04/08 06:54:40;;;;;;;6.75;3.65;;;22.70;55.30;;;;;;5078248;28;20045;-71
2022/04/08 06:57:07;;;;;;;6.90;3.70;;;22.80;55.30;;;;;;5078097;28;20159;-81
2022/04/08 06:59:33;;;;;;;4.38;2.08;;;22.80;54.80;;;;;;5077684;28;20067;-79
2022/04/08 07:02:00;;;;;;;4.85;2.35;;;22.90;55.20;;;;;;5078284;28;20063;-80
2022/04/08 07:04:26;;;;;;;6.40;3.97;;;23.10;54.60;;;;;;5077732;28;20063;-77
2022/04/08 07:06:52;;;;;;;12.77;5.65;;;23.30;52.70;;;;;;5078113;28;20036;-70
2022/04/08 07:09:19;;;;;;;16.40;5.65;;;23.50;53.40;;;;;;5078070;28;20048;-69
2022/04/08 07:11:47;;;;;;;20.15;6.43;;;23.70;55.40;;;;;;5077364;28;20041;-70
2022/04/08 07:14:15;;;;;;;5.57;3.30;;;23.80;46.30;;;;;;5095098;28;20097;-78
2022/04/08 07:16:43;;;;;;;9.65;2.72;;;23.70;46.80;;;;;;5097864;28;20064;-71
2022/04/08 07:19:11;;;;;;;3.63;1.58;;;23.60;50.40;;;;;;5097295;28;20745;-71
2022/04/08 07:21:37;;;;;;;6.53;2.95;;;23.60;50.30;;;;;;5097420;28;20036;-70
2022/04/08 07:24:04;;;;;;;11.63;3.45;;;23.60;49.30;;;;;;5097309;28;20044;-73
2022/04/08 07:26:30;;;;;;;7.70;3.75;;;23.60;50.00;;;;;;5096692;28;20040;-71
2022/04/08 07:28:56;;;;;;;3.05;1.52;;;23.60;51.60;;;;;;5097915;28;20032;-68
2022/04/08 07:31:22;;;;;;;1.83;1.58;;;23.60;50.20;;;;;;5097778;28;20096;-70
2022/04/08 07:33:48;;;;;;;2.90;2.58;;;23.60;50.70;;;;;;5097748;28;20056;-69
2022/04/08 07:36:15;;;;;;;7.65;5.70;;;23.60;50.00;;;;;;5097697;28;20039;-70
2022/04/08 07:38:41;;;;;;;5.68;3.45;;;23.60;54.30;;;;;;5097441;28;20078;-71
2022/04/08 07:41:07;;;;;;;11.57;3.83;;;23.60;51.60;;;;;;5097814;28;20082;-69
2022/04/08 07:43:33;;;;;;;8.73;3.13;;;23.60;50.70;;;;;;5097660;28;20040;-70
2022/04/08 07:45:59;;;;;;;3.67;2.67;;;23.60;50.20;;;;;;5097105;28;20049;-77
2022/04/08 07:48:27;;;;;;;3.00;2.75;;;23.50;48.30;;;;;;5097639;28;20032;-78
2022/04/08 07:50:54;;;;;;;9.32;5.40;;;23.50;47.00;;;;;;5097440;28;20033;-72
2022/04/08 07:53:22;;;;;;;4.32;2.33;;;23.60;46.00;;;;;;5097451;28;20083;-85
2022/04/08 07:55:48;;;;;;;9.10;3.45;;;23.60;46.00;;;;;;5079797;28;20055;-69
2022/04/08 07:58:15;;;;;;;20.92;4.75;;;23.50;44.70;;;;;;5096756;28;20037;-70
2022/04/08 08:00:41;;;;;;;20.42;7.15;;;23.60;49.40;;;;;;5096355;28;20063;-69
2022/04/08 08:03:07;;;;;;;12.73;4.35;;;23.80;59.40;;;;;;5097007;28;20067;-69
2022/04/08 08:05:34;;;;;;;35.08;11.20;;;24.00;55.90;;;;;;5096995;28;20036;-67
2022/04/08 08:08:01;;;;;;;149.80;66.63;;;24.00;48.70;;;;;;5096625;28;20032;-72
2022/04/08 08:10:35;;;;;;;225.73;92.35;;;24.10;51.10;;;;;;5096582;28;20048;-69
2022/04/08 08:13:02;;;;;;;42.85;16.38;;;24.10;50.30;;;;;;5096741;28;20057;-73
2022/04/08 08:15:29;;;;;;;46.22;19.38;;;24.30;43.10;;;;;;5095525;28;20046;-71
2022/04/08 08:17:57;;;;;;;42.60;15.35;;;24.30;41.40;;;;;;5096732;28;20044;-71
2022/04/08 08:20:24;;;;;;;32.90;13.27;;;24.30;41.10;;;;;;5096212;28;20137;-72
2022/04/08 08:22:51;;;;;;;38.90;12.68;;;24.10;40.50;;;;;;5096373;28;20044;-71
2022/04/08 08:25:19;;;;;;;21.50;9.77;;;24.20;39.00;;;;;;5096515;28;20048;-72
2022/04/08 08:27:51;;;;;;;18.02;7.82;;;24.20;39.10;;;;;;5096602;28;20036;-72
2022/04/08 08:30:17;;;;;;;17.02;7.60;;;24.30;41.50;;;;;;5096327;28;20040;-76
2022/04/08 08:32:46;;;;;;;6.35;5.00;;;24.20;44.50;;;;;;5096200;28;20040;-72
2022/04/08 08:35:14;;;;;;;11.60;6.70;;;24.20;44.90;;;;;;5095910;28;20055;-70
2022/04/08 08:37:41;;;;;;;9.30;5.13;;;24.10;42.60;;;;;;5096096;28;20032;-71
2022/04/08 08:40:08;;;;;;;7.38;4.63;;;24.10;42.00;;;;;;5094374;28;20048;-70
2022/04/08 08:42:36;;;;;;;7.55;4.20;;;24.20;41.90;;;;;;5096116;28;20051;-70
2022/04/08 08:45:08;;;;;;;6.28;4.55;;;24.00;40.50;;;;;;5095173;28;20071;-70
2022/04/08 08:47:34;;;;;;;8.23;4.30;;;24.10;41.90;;;;;;5095395;28;20044;-71
2022/04/08 08:50:01;;;;;;;8.07;4.68;;;24.10;40.50;;;;;;5095844;28;20067;-70
2022/04/08 08:52:28;;;;;;;27.23;11.25;;;24.10;38.70;;;;;;5096012;28;20041;-70
2022/04/08 08:54:54;;;;;;;22.52;12.88;;;24.00;37.50;;;;;;5095893;28;20058;-70
2022/04/08 08:57:22;;;;;;;8.75;6.13;;;24.10;42.00;;;;;;5095117;28;20032;-70
2022/04/08 08:59:52;;;;;;;9.05;6.45;;;24.20;42.60;;;;;;5095849;28;20074;-72
2022/04/08 09:02:21;;;;;;;12.25;6.93;;;24.20;44.10;;;;;;5096024;28;20040;-72
2022/04/08 09:04:50;;;;;;;11.63;6.18;;;24.10;44.50;;;;;;5095046;28;20052;-72
2022/04/08 09:07:28;;;;;;;13.35;5.32;;;24.10;45.00;;;;;;5095133;28;20043;-72
2022/04/08 09:09:57;;;;;;;10.68;7.05;;;24.10;45.30;;;;;;5087554;28;20036;-72
2022/04/08 09:12:28;;;;;;;9.95;5.90;;;24.10;45.60;;;;;;5075602;28;20086;-72
2022/04/08 09:15:00;;;;;;;9.07;5.05;;;24.00;45.80;;;;;;5075448;28;20037;-71
2022/04/08 09:17:29;;;;;;;6.43;5.55;;;24.10;46.30;;;;;;5075693;28;20059;-72
2022/04/08 09:19:59;;;;;;;6.47;5.18;;;24.10;46.50;;;;;;5074834;28;20056;-72
2022/04/08 09:22:32;;;;;;;9.60;5.32;;;24.10;46.90;;;;;;5075353;28;20040;-72
2022/04/08 09:25:12;;;;;;;8.52;5.57;;;24.10;47.10;;;;;;5075258;28;20109;-72
2022/04/08 09:27:40;;;;;;;11.98;6.90;;;24.00;47.30;;;;;;5075430;28;20036;-71
2022/04/08 09:30:08;;;;;;;7.72;5.32;;;24.10;47.70;;;;;;5075144;28;20033;-72
2022/04/08 09:32:36;;;;;;;12.38;6.15;;;24.00;47.80;;;;;;5075518;28;20043;-71
2022/04/08 09:35:03;;;;;;;8.48;5.18;;;24.00;48.30;;;;;;5075444;28;20075;-71
2022/04/08 09:37:29;;;;;;;12.38;6.72;;;24.00;49.50;;;;;;5075072;28;20039;-70
2022/04/08 09:40:01;;;;;;;9.48;4.80;;;23.90;48.90;;;;;;5082843;28;20075;-71
2022/04/08 09:42:45;;;;;;;6.35;4.38;;;23.90;47.90;;;;;;5086801;28;20437;-71
2022/04/08 09:45:13;;;;;;;6.10;3.85;;;24.10;47.50;;;;;;5075158;28;20076;-72
2022/04/08 09:47:39;;;;;;;8.68;4.43;;;23.90;47.40;;;;;;5094198;28;20067;-72
2022/04/08 09:50:08;;;;;;;9.77;4.45;;;23.90;47.90;;;;;;5097085;28;20040;-71
2022/04/08 09:52:37;;;;;;;14.95;5.50;;;24.10;53.60;;;;;;5099567;28;20054;-71
2022/04/08 09:55:07;;;;;;;7.35;4.80;;;24.40;47.70;;;;;;5081809;28;20049;-70
2022/04/08 09:57:40;;;;;;;8.85;5.07;;;24.70;50.50;;;;;;5073246;28;20040;-70
2022/04/08 10:00:08;;;;;;;9.60;4.60;;;24.70;44.80;;;;;;5079415;28;20036;-70
2022/04/08 10:02:39;;;;;;;6.43;3.92;;;24.60;42.10;;;;;;5079347;28;20051;-70
2022/04/08 10:05:08;;;;;;;8.23;4.00;;;24.50;42.40;;;;;;5079148;28;20049;-70
2022/04/08 10:07:35;;;;;;;7.32;3.75;;;24.50;43.70;;;;;;5079149;28;20060;-71
2022/04/08 10:10:31;;;;;;;5.32;3.83;;;24.50;47.40;;;;;;5078476;28;20091;-70
2022/04/08 10:13:35;;;;;;;8.50;3.95;;;24.70;50.00;;;;;;5079008;28;20039;-71
2022/04/08 10:16:16;;;;;;;;;;;24.70;50.50;;;;;;5079616;28;20049;-70
2022/04/08 10:18:43;;;;;;;3.22;2.78;;;24.70;38.80;;;;;;5079246;28;19932;-70
2022/04/08 10:21:10;;;;;;;5.57;3.28;;;24.60;46.80;;;;;;5078889;28;20039;-70
2022/04/08 10:23:39;;;;;;;7.65;2.65;;;24.50;46.50;;;;;;5078722;28;20056;-70
2022/04/08 10:26:15;;;;;;;3.67;2.05;;;24.60;46.30;;;;;;5078827;28;20079;-70
2022/04/08 10:28:41;;;;;;;6.32;2.85;;;24.50;46.30;;;;;;5078801;28;20044;-70
2022/04/08 10:31:20;;;;;;;5.95;3.67;;;24.50;46.70;;;;;;5078591;28;20651;-70
2022/04/08 10:33:48;;;;;;;5.07;2.75;;;24.30;46.70;;;;;;5078580;28;20033;-69
2022/04/08 10:36:15;;;;;;;3.47;2.50;;;24.40;46.90;;;;;;5078554;28;20049;-69
2022/04/08 10:38:41;;;;;;;2.97;2.67;;;24.40;46.80;;;;;;5078545;28;20049;-69
2022/04/08 10:41:11;;;;;;;5.97;3.17;;;24.40;47.00;;;;;;5078519;28;20049;-69
2022/04/08 10:43:45;;;;;;;8.05;2.70;;;24.40;46.90;;;;;;5077454;28;20049;-70
2022/04/08 10:46:12;;;;;;;4.88;2.38;;;24.30;47.70;;;;;;5078432;28;20064;-70
2022/04/08 10:48:39;;;;;;;4.05;1.92;;;24.30;48.30;;;;;;5078395;28;20041;-70
2022/04/08 10:51:13;;;;;;;4.53;2.38;;;24.30;48.90;;;;;;5078497;28;20045;-70
2022/04/08 10:53:41;;;;;;;1.77;1.33;;;24.30;48.00;;;;;;5078428;28;20040;-70
2022/04/08 10:56:13;;;;;;;1.80;1.70;;;24.20;47.90;;;;;;5078307;28;20100;-71
2022/04/08 10:58:49;;;;;;;4.72;2.67;;;24.20;48.00;;;;;;5078352;28;20059;-70
2022/04/08 11:01:22;;;;;;;6.30;2.83;;;24.10;48.10;;;;;;5078029;28;20119;-71
2022/04/08 11:04:03;;;;;;;3.92;2.55;;;24.00;48.30;;;;;;5077826;28;20049;-70
2022/04/08 11:06:32;;;;;;;4.28;2.78;;;24.10;48.00;;;;;;5077421;28;20067;-70
2022/04/08 11:09:05;;;;;;;4.30;2.72;;;24.00;48.40;;;;;;5078120;28;20037;-71
2022/04/08 11:11:40;;;;;;;2.55;2.28;;;24.10;48.40;;;;;;5078129;28;20088;-69
2022/04/08 11:14:07;;;;;;;3.30;2.70;;;24.10;48.50;;;;;;5077953;28;20045;-69
2022/04/08 11:16:39;;;;;;;2.92;2.53;;;24.10;48.50;;;;;;5076942;28;20041;-69
2022/04/08 11:19:07;;;;;;;3.13;2.05;;;24.10;48.60;;;;;;5077447;28;20052;-69
2022/04/08 11:21:37;;;;;;;1.63;1.42;;;24.00;48.50;;;;;;5077930;28;20041;-69
2022/04/08 11:24:09;;;;;;;4.75;2.22;;;23.90;48.60;;;;;;5077363;28;20029;-69
2022/04/08 11:26:49;;;;;;;3.35;2.20;;;24.10;48.30;;;;;;5077392;28;20044;-71
2022/04/08 11:29:21;;;;;;;3.50;2.75;;;23.90;48.50;;;;;;5077588;28;20037;-71
2022/04/08 11:32:04;;;;;;;4.90;2.53;;;24.00;47.70;;;;;;5076863;28;20037;-72
2022/04/08 11:34:31;;;;;;;2.92;1.65;;;23.80;48.60;;;;;;5077299;28;20112;-71
2022/04/08 11:36:57;;;;;;;2.13;1.83;;;23.80;48.50;;;;;;5077567;28;20039;-72
2022/04/08 11:39:23;;;;;;;4.72;2.03;;;24.00;49.70;;;;;;5077343;28;20044;-71
2022/04/08 11:41:56;;;;;;;2.30;1.83;;;23.90;50.60;;;;;;5077452;28;20045;-71
2022/04/08 11:44:23;;;;;;;2.88;2.08;;;23.90;50.10;;;;;;5076053;28;20041;-72
2022/04/08 11:46:49;;;;;;;3.03;2.33;;;23.90;49.90;;;;;;5076489;28;20037;-72
2022/04/08 11:49:17;;;;;;;2.70;1.90;;;24.00;49.80;;;;;;5076806;28;20044;-71
2022/04/08 11:51:45;;;;;;;1.45;1.20;;;23.90;49.60;;;;;;5076637;28;20040;-70
2022/04/08 11:54:11;;;;;;;4.93;2.25;;;23.80;49.40;;;;;;5076908;28;20067;-71
2022/04/08 11:56:49;;;;;;;2.72;2.00;;;23.90;49.60;;;;;;5076902;28;20075;-72
2022/04/08 11:59:15;;;;;;;2.10;1.58;;;23.80;49.50;;;;;;5076834;28;20033;-71
2022/04/08 12:01:41;;;;;;;1.95;1.55;;;23.80;49.60;;;;;;5077069;28;20056;-72
2022/04/08 12:04:09;;;;;;;1.80;1.42;;;23.90;49.70;;;;;;5076803;28;20037;-72
2022/04/08 12:06:42;;;;;;;2.28;1.30;;;23.90;49.50;;;;;;5076645;28;20036;-72
2022/04/08 12:09:13;;;;;;;1.95;1.55;;;23.80;49.20;;;;;;5077219;28;20048;-71
2022/04/08 12:11:39;;;;;;;4.75;2.38;;;23.90;48.90;;;;;;5076548;28;20068;-71
2022/04/08 12:14:08;;;;;;;3.53;1.90;;;23.90;49.30;;;;;;5076962;28;20069;-71
2022/04/08 12:16:35;;;;;;;2.25;1.23;;;23.90;49.40;;;;;;5076874;28;20033;-72
2022/04/08 12:19:02;;;;;;;1.83;1.50;;;23.90;49.10;;;;;;5076774;28;20045;-72
2022/04/08 12:21:29;;;;;;;1.77;1.55;;;23.80;49.00;;;;;;5076845;28;20041;-71
2022/04/08 12:23:59;;;;;;;1.40;1.30;;;23.90;49.30;;;;;;5076753;28;20048;-70
2022/04/08 12:26:34;;;;;;;1.48;1.38;;;23.90;49.60;;;;;;5076776;28;20032;-70
2022/04/08 12:29:07;;;;;;;1.83;1.50;;;24.00;49.80;;;;;;5076783;28;20044;-70
2022/04/08 12:31:43;;;;;;;5.68;1.63;;;23.90;49.70;;;;;;5076252;28;20041;-70
2022/04/08 12:34:10;;;;;;;2.78;1.52;;;23.90;48.10;;;;;;5076606;28;20056;-70
2022/04/08 12:36:36;;;;;;;1.17;0.93;;;24.00;50.00;;;;;;5076497;28;20083;-70
2022/04/08 12:39:02;;;;;;;3.67;1.48;;;24.00;50.40;;;;;;5076355;28;20083;-70
2022/04/08 12:41:28;;;;;;;5.18;1.15;;;23.90;50.10;;;;;;5076431;28;20048;-70
2022/04/08 12:43:57;;;;;;;2.83;1.60;;;24.00;50.50;;;;;;5076532;28;20037;-70
2022/04/08 12:46:23;;;;;;;1.00;0.82;;;23.90;51.20;;;;;;5076472;28;20049;-70